EZY68HV EKCH-EGCC
Flight info
| Callsign | EZY68HV |
|---|---|
| Flight time | 1h 36m |
| Altitude | 32000 |
| Route | ODDON DCT LESRA DCT ROPAL DCT TILNI |
| Aircraft | A320/M-SDE2E3FGHIJ1RWXYZ/LB1 |
Departure
| Time | 2026-05-04 12:06 |
|---|---|
| Airport | Copenhagen Kastrup Airport (EKCH) |
Arrival
| Time | 2026-05-04 13:42 |
|---|---|
| Airport | Manchester Airport (EGCC) |
| Time | Latitude | Longitude | Altitude | Speed | Heading |
|---|---|---|---|---|---|
| 2026-05-04 11:02 | 55.62520 | 12.65573 | 24 ft | 0 kts | 23° |
| 2026-05-04 11:50 | 55.62519 | 12.65573 | 24 ft | 0 kts | 23° |
| 2026-05-04 11:56 | 55.62507 | 12.65563 | 24 ft | 4 kts | 20° |
| 2026-05-04 11:56 | 55.62481 | 12.65550 | 25 ft | 4 kts | 6° |
| 2026-05-04 11:56 | 55.62456 | 12.65553 | 26 ft | 4 kts | 330° |
| 2026-05-04 11:56 | 55.62444 | 12.65576 | 15 ft | 2 kts | 269° |
| 2026-05-04 11:57 | 55.62444 | 12.65548 | 20 ft | 4 kts | 269° |
| 2026-05-04 11:57 | 55.62443 | 12.65511 | 5 ft | 0 kts | 268° |
| 2026-05-04 11:59 | 55.62443 | 12.65485 | 34 ft | 4 kts | 268° |
| 2026-05-04 12:00 | 55.62442 | 12.65402 | 24 ft | 9 kts | 268° |
| 2026-05-04 12:00 | 55.62397 | 12.65327 | 24 ft | 13 kts | 181° |
| 2026-05-04 12:00 | 55.62309 | 12.65315 | 24 ft | 11 kts | 222° |
| 2026-05-04 12:00 | 55.62263 | 12.65208 | 24 ft | 12 kts | 199° |
| 2026-05-04 12:01 | 55.62191 | 12.65143 | 24 ft | 12 kts | 236° |
| 2026-05-04 12:01 | 55.62213 | 12.65011 | 24 ft | 12 kts | 304° |
| 2026-05-04 12:02 | 55.61826 | 12.64533 | 24 ft | 17 kts | 169° |
| 2026-05-04 12:03 | 55.61689 | 12.64557 | 24 ft | 14 kts | 204° |
| 2026-05-04 12:03 | 55.61654 | 12.64410 | 24 ft | 14 kts | 265° |
| 2026-05-04 12:03 | 55.61647 | 12.64240 | 25 ft | 14 kts | 266° |
| 2026-05-04 12:03 | 55.61631 | 12.64083 | 27 ft | 12 kts | 237° |
| 2026-05-04 12:04 | 55.61600 | 12.64031 | 27 ft | 0 kts | 222° |
| 2026-05-04 12:04 | 55.61599 | 12.64028 | 27 ft | 0 kts | 222° |
| 2026-05-04 12:04 | 55.61598 | 12.64027 | 27 ft | 0 kts | 222° |
| 2026-05-04 12:05 | 55.61596 | 12.64024 | 27 ft | 1 kts | 221° |
| 2026-05-04 12:05 | 55.61535 | 12.63929 | 27 ft | 40 kts | 221° |
| 2026-05-04 12:05 | 55.61150 | 12.63335 | 28 ft | 104 kts | 221° |
| 2026-05-04 12:05 | 55.60472 | 12.62285 | 30 ft | 152 kts | 220° |
| 2026-05-04 12:06 | 55.59633 | 12.60969 | 449 ft | 162 kts | 225° |
| 2026-05-04 12:06 | 55.58790 | 12.59675 | 1117 ft | 164 kts | 225° |
| 2026-05-04 12:06 | 55.57869 | 12.58310 | 1507 ft | 183 kts | 223° |
| 2026-05-04 12:06 | 55.56829 | 12.56773 | 1740 ft | 209 kts | 224° |
| 2026-05-04 12:07 | 55.55901 | 12.54659 | 2094 ft | 230 kts | 252° |
| 2026-05-04 12:07 | 55.55781 | 12.51801 | 2704 ft | 241 kts | 276° |
| 2026-05-04 12:07 | 55.56047 | 12.48883 | 3616 ft | 242 kts | 281° |
| 2026-05-04 12:07 | 55.56407 | 12.45953 | 4497 ft | 245 kts | 282° |
| 2026-05-04 12:08 | 55.56767 | 12.42998 | 5375 ft | 248 kts | 281° |
| 2026-05-04 12:08 | 55.57102 | 12.40007 | 6244 ft | 250 kts | 279° |
| 2026-05-04 12:08 | 55.57309 | 12.38000 | 6781 ft | 252 kts | 279° |
| 2026-05-04 12:08 | 55.57699 | 12.33934 | 7882 ft | 255 kts | 278° |
| 2026-05-04 12:09 | 55.57963 | 12.30831 | 8707 ft | 257 kts | 274° |
| 2026-05-04 12:09 | 55.58079 | 12.27678 | 9519 ft | 260 kts | 272° |
| 2026-05-04 12:09 | 55.58184 | 12.24474 | 10215 ft | 267 kts | 272° |
| 2026-05-04 12:09 | 55.58289 | 12.21070 | 10434 ft | 290 kts | 272° |
| 2026-05-04 12:10 | 55.58398 | 12.17429 | 10921 ft | 301 kts | 272° |
| 2026-05-04 12:10 | 55.58474 | 12.14967 | 11363 ft | 304 kts | 272° |
| 2026-05-04 12:10 | 55.58593 | 12.11206 | 12090 ft | 308 kts | 272° |
| 2026-05-04 12:10 | 55.58752 | 12.06174 | 13050 ft | 311 kts | 272° |
| 2026-05-04 12:11 | 55.58833 | 12.03582 | 13537 ft | 313 kts | 272° |
| 2026-05-04 12:11 | 55.58992 | 11.98472 | 14374 ft | 317 kts | 271° |
| 2026-05-04 12:11 | 55.59108 | 11.94580 | 15015 ft | 319 kts | 271° |
| 2026-05-04 12:11 | 55.59223 | 11.90642 | 15651 ft | 321 kts | 271° |
| 2026-05-04 12:12 | 55.59335 | 11.86702 | 16279 ft | 323 kts | 271° |
| 2026-05-04 12:12 | 55.59411 | 11.84064 | 16688 ft | 324 kts | 271° |
| 2026-05-04 12:12 | 55.59525 | 11.80069 | 17311 ft | 327 kts | 271° |
| 2026-05-04 12:12 | 55.59638 | 11.76041 | 17925 ft | 329 kts | 271° |
| 2026-05-04 12:13 | 55.59750 | 11.71989 | 18486 ft | 332 kts | 271° |
| 2026-05-04 12:14 | 55.60512 | 11.42848 | 22046 ft | 347 kts | 271° |
| 2026-05-04 12:15 | 55.60596 | 11.38569 | 22537 ft | 349 kts | 267° |
| 2026-05-04 12:15 | 55.60475 | 11.34287 | 23009 ft | 351 kts | 265° |
| 2026-05-04 12:15 | 55.60340 | 11.29967 | 23480 ft | 353 kts | 265° |
| 2026-05-04 12:15 | 55.60200 | 11.25621 | 23874 ft | 355 kts | 265° |
| 2026-05-04 12:16 | 55.60056 | 11.21255 | 24260 ft | 357 kts | 265° |
| 2026-05-04 12:16 | 55.59911 | 11.16916 | 24592 ft | 360 kts | 265° |
| 2026-05-04 12:16 | 55.59765 | 11.12479 | 24950 ft | 363 kts | 265° |
| 2026-05-04 12:16 | 55.59618 | 11.08015 | 25312 ft | 365 kts | 265° |
| 2026-05-04 12:17 | 55.59468 | 11.03522 | 25669 ft | 367 kts | 265° |
| 2026-05-04 12:17 | 55.59314 | 10.99004 | 26020 ft | 369 kts | 265° |
| 2026-05-04 12:17 | 55.59157 | 10.94458 | 26369 ft | 371 kts | 265° |
| 2026-05-04 12:17 | 55.59001 | 10.89898 | 26711 ft | 373 kts | 265° |
| 2026-05-04 12:18 | 55.58843 | 10.85293 | 27049 ft | 376 kts | 265° |
| 2026-05-04 12:18 | 55.58681 | 10.80696 | 27385 ft | 378 kts | 265° |
| 2026-05-04 12:18 | 55.58511 | 10.76051 | 27720 ft | 380 kts | 265° |
| 2026-05-04 12:18 | 55.58338 | 10.71458 | 28044 ft | 382 kts | 265° |
| 2026-05-04 12:19 | 55.58162 | 10.66757 | 28328 ft | 385 kts | 265° |
| 2026-05-04 12:19 | 55.58006 | 10.62012 | 28590 ft | 388 kts | 266° |
| 2026-05-04 12:19 | 55.57917 | 10.57238 | 28893 ft | 391 kts | 267° |
| 2026-05-04 12:19 | 55.57870 | 10.52415 | 29198 ft | 393 kts | 268° |
| 2026-05-04 12:20 | 55.57840 | 10.47576 | 29499 ft | 395 kts | 268° |
| 2026-05-04 12:20 | 55.57807 | 10.42706 | 29792 ft | 397 kts | 268° |
| 2026-05-04 12:20 | 55.57762 | 10.37825 | 30067 ft | 399 kts | 268° |
| 2026-05-04 12:20 | 55.57705 | 10.32896 | 30301 ft | 401 kts | 267° |
| 2026-05-04 12:21 | 55.57640 | 10.28029 | 30527 ft | 403 kts | 267° |
| 2026-05-04 12:21 | 55.57567 | 10.23073 | 30756 ft | 404 kts | 267° |
| 2026-05-04 12:21 | 55.57492 | 10.18109 | 31013 ft | 405 kts | 267° |
| 2026-05-04 12:21 | 55.57412 | 10.13133 | 31339 ft | 404 kts | 267° |
| 2026-05-04 12:22 | 55.57328 | 10.08182 | 31667 ft | 404 kts | 267° |
| 2026-05-04 12:22 | 55.57241 | 10.03213 | 31881 ft | 406 kts | 268° |
| 2026-05-04 12:22 | 55.57072 | 9.93352 | 31961 ft | 394 kts | 268° |
| 2026-05-04 12:23 | 55.56906 | 9.83799 | 31964 ft | 390 kts | 268° |
| 2026-05-04 12:23 | 55.56736 | 9.74231 | 31964 ft | 390 kts | 268° |
| 2026-05-04 12:24 | 55.56551 | 9.64659 | 31964 ft | 390 kts | 268° |
| 2026-05-04 12:24 | 55.56357 | 9.55085 | 31967 ft | 390 kts | 267° |
| 2026-05-04 12:25 | 55.56162 | 9.45509 | 31955 ft | 391 kts | 268° |
| 2026-05-04 12:25 | 55.55956 | 9.35969 | 31962 ft | 392 kts | 268° |
| 2026-05-04 12:26 | 55.55740 | 9.26325 | 31966 ft | 393 kts | 268° |
| 2026-05-04 12:26 | 55.55512 | 9.16660 | 31973 ft | 394 kts | 268° |
| 2026-05-04 12:27 | 55.55277 | 9.07004 | 31973 ft | 394 kts | 268° |
| 2026-05-04 12:27 | 55.55038 | 8.97384 | 31973 ft | 394 kts | 268° |
| 2026-05-04 12:28 | 55.54788 | 8.87714 | 31971 ft | 395 kts | 268° |
| 2026-05-04 12:28 | 55.54530 | 8.77983 | 31969 ft | 397 kts | 268° |
| 2026-05-04 12:29 | 55.54264 | 8.68225 | 31971 ft | 399 kts | 268° |
| 2026-05-04 12:29 | 55.53993 | 8.58431 | 31981 ft | 400 kts | 268° |
| 2026-05-04 12:30 | 55.53713 | 8.48611 | 31977 ft | 400 kts | 268° |
| 2026-05-04 12:30 | 55.53419 | 8.38864 | 31990 ft | 400 kts | 268° |
| 2026-05-04 12:31 | 55.53124 | 8.29048 | 31974 ft | 402 kts | 268° |
| 2026-05-04 12:31 | 55.52825 | 8.19170 | 31985 ft | 403 kts | 268° |
| 2026-05-04 12:32 | 55.52344 | 8.04348 | 31988 ft | 405 kts | 268° |
| 2026-05-04 12:33 | 55.52011 | 7.94433 | 31986 ft | 405 kts | 267° |
| 2026-05-04 12:33 | 55.51673 | 7.84515 | 31996 ft | 405 kts | 267° |
| 2026-05-04 12:34 | 55.51331 | 7.74672 | 31997 ft | 405 kts | 268° |
| 2026-05-04 12:34 | 55.50977 | 7.64738 | 31995 ft | 407 kts | 268° |
| 2026-05-04 12:35 | 55.50616 | 7.54744 | 31998 ft | 408 kts | 266° |
| 2026-05-04 12:35 | 55.49885 | 7.44792 | 32002 ft | 410 kts | 263° |
| 2026-05-04 12:36 | 55.48986 | 7.34933 | 32008 ft | 410 kts | 262° |
| 2026-05-04 12:36 | 55.48084 | 7.25263 | 32008 ft | 410 kts | 262° |
| 2026-05-04 12:37 | 55.47221 | 7.15755 | 31999 ft | 411 kts | 263° |
| 2026-05-04 12:37 | 55.46331 | 7.05845 | 32005 ft | 413 kts | 263° |
| 2026-05-04 12:38 | 55.45114 | 6.96021 | 31989 ft | 415 kts | 258° |
| 2026-05-04 12:38 | 55.44159 | 6.86130 | 32025 ft | 416 kts | 265° |
| 2026-05-04 12:39 | 55.43512 | 6.76047 | 32031 ft | 416 kts | 264° |
| 2026-05-04 12:39 | 55.42700 | 6.65962 | 32027 ft | 416 kts | 262° |
| 2026-05-04 12:40 | 55.41726 | 6.55923 | 32015 ft | 417 kts | 262° |
| 2026-05-04 12:40 | 55.40723 | 6.45920 | 32017 ft | 417 kts | 262° |
| 2026-05-04 12:41 | 55.39783 | 6.36283 | 32019 ft | 418 kts | 262° |
| 2026-05-04 12:41 | 55.38829 | 6.26424 | 32020 ft | 418 kts | 262° |
| 2026-05-04 12:42 | 55.37841 | 6.16364 | 32021 ft | 418 kts | 262° |
| 2026-05-04 12:42 | 55.36844 | 6.06303 | 32008 ft | 418 kts | 262° |
| 2026-05-04 12:43 | 55.35852 | 5.96283 | 32016 ft | 419 kts | 262° |
| 2026-05-04 12:43 | 55.34841 | 5.86259 | 32020 ft | 420 kts | 261° |
| 2026-05-04 12:44 | 55.33808 | 5.76140 | 32023 ft | 421 kts | 261° |
| 2026-05-04 12:44 | 55.32765 | 5.66028 | 32032 ft | 421 kts | 261° |
| 2026-05-04 12:45 | 55.31728 | 5.55978 | 32032 ft | 421 kts | 261° |
| 2026-05-04 12:45 | 55.30669 | 5.45855 | 32027 ft | 422 kts | 261° |
| 2026-05-04 12:46 | 55.29602 | 5.35729 | 32032 ft | 422 kts | 261° |
| 2026-05-04 12:46 | 55.28524 | 5.25597 | 32037 ft | 423 kts | 261° |
| 2026-05-04 12:47 | 55.27447 | 5.15535 | 32037 ft | 423 kts | 261° |
| 2026-05-04 12:47 | 55.26372 | 5.05576 | 32040 ft | 422 kts | 261° |
| 2026-05-04 12:48 | 55.25294 | 4.95654 | 32042 ft | 422 kts | 261° |
| 2026-05-04 12:48 | 55.24185 | 4.85566 | 32043 ft | 422 kts | 261° |
| 2026-05-04 12:49 | 55.23072 | 4.75475 | 32037 ft | 422 kts | 261° |
| 2026-05-04 12:49 | 55.21949 | 4.65380 | 32038 ft | 422 kts | 260° |
| 2026-05-04 12:50 | 55.20828 | 4.55359 | 32036 ft | 422 kts | 260° |
| 2026-05-04 12:50 | 55.19684 | 4.45284 | 32039 ft | 422 kts | 260° |
| 2026-05-04 12:51 | 55.18526 | 4.35203 | 32022 ft | 422 kts | 260° |
| 2026-05-04 12:51 | 55.17367 | 4.25130 | 32024 ft | 423 kts | 260° |
| 2026-05-04 12:52 | 55.16211 | 4.15103 | 32027 ft | 424 kts | 260° |
| 2026-05-04 12:52 | 55.15032 | 4.04990 | 32031 ft | 424 kts | 259° |
| 2026-05-04 12:53 | 55.13835 | 3.94882 | 32042 ft | 425 kts | 259° |
| 2026-05-04 12:53 | 55.12858 | 3.84722 | 32044 ft | 424 kts | 264° |
| 2026-05-04 12:54 | 55.12171 | 3.74556 | 32034 ft | 424 kts | 265° |
| 2026-05-04 12:54 | 55.11458 | 3.64333 | 32042 ft | 424 kts | 264° |
| 2026-05-04 12:55 | 55.10657 | 3.54146 | 32048 ft | 424 kts | 263° |
| 2026-05-04 12:55 | 55.09815 | 3.43947 | 32050 ft | 424 kts | 263° |
| 2026-05-04 12:56 | 55.08977 | 3.33767 | 32051 ft | 424 kts | 263° |
| 2026-05-04 12:56 | 55.08145 | 3.23640 | 32045 ft | 424 kts | 263° |
| 2026-05-04 12:57 | 55.07305 | 3.13452 | 32050 ft | 424 kts | 263° |
| 2026-05-04 12:57 | 55.06449 | 3.03256 | 32057 ft | 425 kts | 263° |
| 2026-05-04 12:58 | 55.05586 | 2.93065 | 32054 ft | 424 kts | 263° |
| 2026-05-04 12:58 | 55.04714 | 2.82962 | 32064 ft | 424 kts | 263° |
| 2026-05-04 12:59 | 55.03829 | 2.72786 | 32058 ft | 424 kts | 263° |
| 2026-05-04 12:59 | 55.02937 | 2.62628 | 32061 ft | 424 kts | 263° |
| 2026-05-04 13:00 | 55.02043 | 2.52483 | 32063 ft | 423 kts | 263° |
| 2026-05-04 13:00 | 55.01140 | 2.42351 | 32062 ft | 423 kts | 263° |
| 2026-05-04 13:01 | 55.00228 | 2.32292 | 32073 ft | 423 kts | 262° |
| 2026-05-04 13:01 | 54.99309 | 2.22171 | 32060 ft | 423 kts | 263° |
| 2026-05-04 13:02 | 54.98384 | 2.12058 | 32049 ft | 423 kts | 262° |
| 2026-05-04 13:02 | 54.97444 | 2.01948 | 32049 ft | 424 kts | 262° |
| 2026-05-04 13:03 | 54.96498 | 1.91874 | 32053 ft | 425 kts | 262° |
| 2026-05-04 13:03 | 54.95536 | 1.81714 | 32059 ft | 426 kts | 262° |
| 2026-05-04 13:04 | 54.94561 | 1.71555 | 32053 ft | 426 kts | 262° |
| 2026-05-04 13:04 | 54.93589 | 1.61396 | 32054 ft | 426 kts | 262° |
| 2026-05-04 13:05 | 54.92613 | 1.51317 | 32053 ft | 426 kts | 262° |
| 2026-05-04 13:05 | 54.91621 | 1.41170 | 32056 ft | 426 kts | 262° |
| 2026-05-04 13:06 | 54.90618 | 1.31037 | 32064 ft | 426 kts | 262° |
| 2026-05-04 13:06 | 54.89606 | 1.20909 | 32053 ft | 426 kts | 262° |
| 2026-05-04 13:07 | 54.88584 | 1.10845 | 32052 ft | 426 kts | 261° |
| 2026-05-04 13:07 | 54.87559 | 1.00741 | 32056 ft | 425 kts | 262° |
| 2026-05-04 13:08 | 54.86532 | 0.90616 | 32058 ft | 425 kts | 262° |
| 2026-05-04 13:08 | 54.85497 | 0.80507 | 32059 ft | 426 kts | 262° |
| 2026-05-04 13:09 | 54.84450 | 0.70399 | 32065 ft | 425 kts | 261° |
| 2026-05-04 13:09 | 54.83393 | 0.60369 | 32064 ft | 425 kts | 261° |
| 2026-05-04 13:10 | 54.82316 | 0.50282 | 32054 ft | 426 kts | 261° |
| 2026-05-04 13:10 | 54.81236 | 0.40189 | 32054 ft | 426 kts | 261° |
| 2026-05-04 13:11 | 54.80152 | 0.30090 | 32055 ft | 426 kts | 261° |
| 2026-05-04 13:11 | 54.79060 | 0.19974 | 32057 ft | 427 kts | 261° |
| 2026-05-04 13:12 | 54.77964 | 0.09942 | 32055 ft | 426 kts | 261° |
| 2026-05-04 13:12 | 54.76853 | -0.00129 | 32058 ft | 427 kts | 261° |
| 2026-05-04 13:13 | 54.75729 | -0.10220 | 32054 ft | 427 kts | 261° |
| 2026-05-04 13:13 | 54.75165 | -0.15247 | 31855 ft | 423 kts | 261° |
| 2026-05-04 13:13 | 54.74607 | -0.20197 | 31598 ft | 416 kts | 261° |
| 2026-05-04 13:13 | 54.74053 | -0.25101 | 31341 ft | 413 kts | 261° |
| 2026-05-04 13:14 | 54.73510 | -0.29883 | 31102 ft | 411 kts | 261° |
| 2026-05-04 13:14 | 54.72959 | -0.34717 | 30845 ft | 409 kts | 261° |
| 2026-05-04 13:14 | 54.72411 | -0.39529 | 30596 ft | 408 kts | 261° |
| 2026-05-04 13:14 | 54.71861 | -0.44324 | 30349 ft | 406 kts | 261° |
| 2026-05-04 13:15 | 54.71308 | -0.49114 | 30095 ft | 405 kts | 261° |
| 2026-05-04 13:15 | 54.70761 | -0.53866 | 29811 ft | 403 kts | 261° |
| 2026-05-04 13:15 | 54.70214 | -0.58606 | 29525 ft | 401 kts | 261° |
| 2026-05-04 13:15 | 54.69667 | -0.63319 | 29248 ft | 399 kts | 261° |
| 2026-05-04 13:16 | 54.69117 | -0.68010 | 28961 ft | 397 kts | 261° |
| 2026-05-04 13:16 | 54.68578 | -0.72610 | 28686 ft | 395 kts | 261° |
| 2026-05-04 13:16 | 54.68034 | -0.77242 | 28414 ft | 393 kts | 261° |
| 2026-05-04 13:16 | 54.67492 | -0.81852 | 28165 ft | 390 kts | 261° |
| 2026-05-04 13:17 | 54.66949 | -0.86428 | 28028 ft | 388 kts | 261° |
| 2026-05-04 13:17 | 54.66403 | -0.91005 | 27873 ft | 389 kts | 261° |
| 2026-05-04 13:17 | 54.65860 | -0.95564 | 27605 ft | 387 kts | 261° |
| 2026-05-04 13:17 | 54.65319 | -1.00099 | 27344 ft | 384 kts | 261° |
| 2026-05-04 13:18 | 54.64780 | -1.04611 | 27078 ft | 383 kts | 260° |
| 2026-05-04 13:18 | 54.64250 | -1.09038 | 26805 ft | 381 kts | 260° |
| 2026-05-04 13:18 | 54.63715 | -1.13508 | 26555 ft | 380 kts | 260° |
| 2026-05-04 13:18 | 54.63176 | -1.17973 | 26300 ft | 379 kts | 260° |
| 2026-05-04 13:19 | 54.62635 | -1.22404 | 26052 ft | 377 kts | 260° |
| 2026-05-04 13:19 | 54.62092 | -1.26822 | 25801 ft | 375 kts | 260° |
| 2026-05-04 13:19 | 54.61552 | -1.31211 | 25556 ft | 373 kts | 260° |
| 2026-05-04 13:19 | 54.61016 | -1.35576 | 25306 ft | 371 kts | 259° |
| 2026-05-04 13:20 | 54.60483 | -1.39914 | 25096 ft | 369 kts | 259° |
| 2026-05-04 13:20 | 54.59951 | -1.44240 | 25046 ft | 368 kts | 259° |
| 2026-05-04 13:20 | 54.59418 | -1.48569 | 25057 ft | 369 kts | 259° |
| 2026-05-04 13:20 | 54.58882 | -1.52893 | 25057 ft | 369 kts | 259° |
| 2026-05-04 13:21 | 54.58341 | -1.57218 | 25060 ft | 369 kts | 259° |
| 2026-05-04 13:21 | 54.57805 | -1.61479 | 25052 ft | 369 kts | 259° |
| 2026-05-04 13:21 | 54.57436 | -1.64392 | 25055 ft | 369 kts | 259° |
| 2026-05-04 13:21 | 54.56711 | -1.70125 | 25057 ft | 370 kts | 259° |
| 2026-05-04 13:22 | 54.56164 | -1.74455 | 25048 ft | 370 kts | 258° |
| 2026-05-04 13:22 | 54.55301 | -1.78626 | 25053 ft | 372 kts | 243° |
| 2026-05-04 13:22 | 54.53834 | -1.82282 | 25043 ft | 374 kts | 227° |
| 2026-05-04 13:22 | 54.51839 | -1.85160 | 25049 ft | 375 kts | 212° |
| 2026-05-04 13:23 | 54.49474 | -1.87098 | 24593 ft | 381 kts | 197° |
| 2026-05-04 13:23 | 54.46885 | -1.88034 | 23864 ft | 388 kts | 189° |
| 2026-05-04 13:23 | 54.44221 | -1.88819 | 23194 ft | 390 kts | 189° |
| 2026-05-04 13:23 | 54.41570 | -1.89616 | 22768 ft | 385 kts | 190° |
| 2026-05-04 13:24 | 54.38939 | -1.90428 | 22226 ft | 382 kts | 190° |
| 2026-05-04 13:24 | 54.36335 | -1.91247 | 21727 ft | 380 kts | 191° |
| 2026-05-04 13:24 | 54.33749 | -1.92064 | 21305 ft | 376 kts | 191° |
| 2026-05-04 13:25 | 54.28638 | -1.93659 | 20453 ft | 369 kts | 191° |
| 2026-05-04 13:25 | 54.26130 | -1.94466 | 20019 ft | 366 kts | 194° |
| 2026-05-04 13:25 | 54.23763 | -1.95951 | 19598 ft | 361 kts | 208° |
| 2026-05-04 13:25 | 54.21701 | -1.98350 | 19193 ft | 356 kts | 222° |
| 2026-05-04 13:26 | 54.20061 | -2.01465 | 18765 ft | 350 kts | 235° |
| 2026-05-04 13:26 | 54.18667 | -2.04847 | 17983 ft | 346 kts | 236° |
| 2026-05-04 13:26 | 54.17335 | -2.08093 | 17455 ft | 340 kts | 236° |
| 2026-05-04 13:26 | 54.15984 | -2.11385 | 17033 ft | 338 kts | 236° |
| 2026-05-04 13:27 | 54.14603 | -2.14621 | 16598 ft | 336 kts | 231° |
| 2026-05-04 13:27 | 54.12930 | -2.17370 | 16207 ft | 334 kts | 221° |
| 2026-05-04 13:27 | 54.11147 | -2.19901 | 15821 ft | 332 kts | 220° |
| 2026-05-04 13:27 | 54.09370 | -2.22391 | 15450 ft | 330 kts | 220° |
| 2026-05-04 13:28 | 54.07603 | -2.24858 | 15082 ft | 328 kts | 220° |
| 2026-05-04 13:28 | 54.05861 | -2.27282 | 14720 ft | 326 kts | 220° |
| 2026-05-04 13:28 | 54.04109 | -2.29715 | 14355 ft | 324 kts | 220° |
| 2026-05-04 13:28 | 54.02363 | -2.32132 | 13998 ft | 323 kts | 220° |
| 2026-05-04 13:29 | 54.00628 | -2.34529 | 13624 ft | 321 kts | 220° |
| 2026-05-04 13:29 | 53.98899 | -2.36916 | 13213 ft | 319 kts | 220° |
| 2026-05-04 13:29 | 53.97185 | -2.39283 | 12824 ft | 317 kts | 220° |
| 2026-05-04 13:29 | 53.95483 | -2.41648 | 12428 ft | 315 kts | 220° |
| 2026-05-04 13:30 | 53.93793 | -2.44007 | 12039 ft | 313 kts | 220° |
| 2026-05-04 13:30 | 53.92113 | -2.46347 | 11661 ft | 313 kts | 220° |
| 2026-05-04 13:30 | 53.90429 | -2.48690 | 11292 ft | 313 kts | 220° |
| 2026-05-04 13:30 | 53.88776 | -2.50989 | 10922 ft | 313 kts | 220° |
| 2026-05-04 13:31 | 53.87087 | -2.53332 | 10552 ft | 313 kts | 220° |
| 2026-05-04 13:31 | 53.85398 | -2.55662 | 10182 ft | 313 kts | 219° |
| 2026-05-04 13:31 | 53.83518 | -2.57462 | 9809 ft | 311 kts | 202° |
| 2026-05-04 13:31 | 53.81501 | -2.58711 | 9409 ft | 308 kts | 200° |
| 2026-05-04 13:32 | 53.79480 | -2.59909 | 9009 ft | 306 kts | 200° |
| 2026-05-04 13:32 | 53.77483 | -2.61094 | 8618 ft | 303 kts | 200° |
| 2026-05-04 13:32 | 53.75506 | -2.62261 | 8223 ft | 300 kts | 201° |
| 2026-05-04 13:32 | 53.73542 | -2.63402 | 7847 ft | 297 kts | 200° |
| 2026-05-04 13:33 | 53.71597 | -2.64535 | 7477 ft | 294 kts | 200° |
| 2026-05-04 13:33 | 53.69699 | -2.65654 | 7107 ft | 291 kts | 200° |
| 2026-05-04 13:33 | 53.67763 | -2.66540 | 6733 ft | 288 kts | 184° |
| 2026-05-04 13:33 | 53.65773 | -2.66297 | 6362 ft | 285 kts | 171° |
| 2026-05-04 13:34 | 53.63825 | -2.65768 | 5966 ft | 282 kts | 170° |
| 2026-05-04 13:34 | 53.61896 | -2.65220 | 5570 ft | 280 kts | 170° |
| 2026-05-04 13:34 | 53.59991 | -2.64678 | 5190 ft | 277 kts | 170° |
| 2026-05-04 13:34 | 53.58109 | -2.64145 | 4983 ft | 270 kts | 170° |
| 2026-05-04 13:35 | 53.56261 | -2.63622 | 4988 ft | 269 kts | 170° |
| 2026-05-04 13:35 | 53.52557 | -2.62577 | 4990 ft | 270 kts | 170° |
| 2026-05-04 13:35 | 53.50699 | -2.62054 | 4980 ft | 270 kts | 170° |
| 2026-05-04 13:36 | 53.48872 | -2.61537 | 4819 ft | 269 kts | 170° |
| 2026-05-04 13:36 | 53.47030 | -2.61016 | 4592 ft | 268 kts | 170° |
| 2026-05-04 13:36 | 53.45198 | -2.60501 | 4357 ft | 267 kts | 170° |
| 2026-05-04 13:36 | 53.43376 | -2.59987 | 4121 ft | 265 kts | 170° |
| 2026-05-04 13:37 | 53.41563 | -2.59474 | 3902 ft | 263 kts | 170° |
| 2026-05-04 13:37 | 53.39757 | -2.58964 | 3672 ft | 262 kts | 170° |
| 2026-05-04 13:37 | 53.37965 | -2.58458 | 3455 ft | 261 kts | 170° |
| 2026-05-04 13:37 | 53.36781 | -2.58126 | 3292 ft | 260 kts | 170° |
| 2026-05-04 13:38 | 53.34396 | -2.57456 | 2981 ft | 259 kts | 170° |
| 2026-05-04 13:38 | 53.32644 | -2.56961 | 2751 ft | 258 kts | 170° |
| 2026-05-04 13:38 | 53.30934 | -2.56480 | 2528 ft | 258 kts | 170° |
| 2026-05-04 13:38 | 53.29119 | -2.55965 | 2287 ft | 256 kts | 170° |
| 2026-05-04 13:39 | 53.27377 | -2.55363 | 2078 ft | 255 kts | 159° |
| 2026-05-04 13:39 | 53.25935 | -2.53720 | 1993 ft | 253 kts | 129° |
| 2026-05-04 13:39 | 53.25152 | -2.51129 | 2002 ft | 254 kts | 101° |
| 2026-05-04 13:39 | 53.25206 | -2.48214 | 2005 ft | 254 kts | 72° |
| 2026-05-04 13:40 | 53.26078 | -2.45667 | 2006 ft | 252 kts | 51° |
| 2026-05-04 13:40 | 53.27136 | -2.43516 | 1992 ft | 229 kts | 50° |
| 2026-05-04 13:40 | 53.28113 | -2.41537 | 1805 ft | 214 kts | 50° |
| 2026-05-04 13:40 | 53.29010 | -2.39697 | 1572 ft | 201 kts | 51° |
| 2026-05-04 13:41 | 53.29855 | -2.37959 | 1315 ft | 184 kts | 51° |
| 2026-05-04 13:41 | 53.30624 | -2.36374 | 1054 ft | 170 kts | 51° |
| 2026-05-04 13:41 | 53.31345 | -2.34881 | 812 ft | 161 kts | 51° |
| 2026-05-04 13:42 | 53.32704 | -2.32087 | 404 ft | 152 kts | 51° |
| 2026-05-04 13:42 | 53.33368 | -2.30718 | 245 ft | 150 kts | 52° |
| 2026-05-04 13:42 | 53.33959 | -2.29486 | 226 ft | 115 kts | 51° |
| 2026-05-04 13:42 | 53.34321 | -2.28746 | 225 ft | 45 kts | 51° |
| 2026-05-04 13:43 | 53.34491 | -2.28392 | 225 ft | 26 kts | 49° |
| 2026-05-04 13:43 | 53.34628 | -2.28220 | 230 ft | 25 kts | 26° |
| 2026-05-04 13:43 | 53.34745 | -2.28140 | 231 ft | 11 kts | 22° |
| 2026-05-04 13:43 | 53.34812 | -2.28095 | 232 ft | 11 kts | 21° |
| 2026-05-04 13:44 | 53.34879 | -2.28043 | 231 ft | 11 kts | 34° |
| 2026-05-04 13:44 | 53.34924 | -2.27964 | 229 ft | 8 kts | 50° |
| 2026-05-04 13:44 | 53.34956 | -2.27898 | 230 ft | 8 kts | 51° |
| 2026-05-04 13:44 | 53.35006 | -2.27791 | 230 ft | 14 kts | 51° |
| 2026-05-04 13:45 | 53.35059 | -2.27682 | 232 ft | 9 kts | 51° |
| 2026-05-04 13:45 | 53.35093 | -2.27614 | 234 ft | 6 kts | 51° |
| 2026-05-04 13:45 | 53.35117 | -2.27564 | 234 ft | 6 kts | 51° |
| 2026-05-04 13:45 | 53.35155 | -2.27485 | 236 ft | 11 kts | 51° |
| 2026-05-04 13:46 | 53.35209 | -2.27372 | 238 ft | 14 kts | 51° |
| 2026-05-04 13:46 | 53.35268 | -2.27253 | 239 ft | 12 kts | 49° |
| 2026-05-04 13:46 | 53.35315 | -2.27198 | 243 ft | 0 kts | 19° |
| 2026-05-04 13:47 | 53.35327 | -2.27193 | 243 ft | 4 kts | 13° |
| 2026-05-04 13:47 | 53.35339 | -2.27190 | 244 ft | 0 kts | 4° |
| 2026-05-04 13:47 | 53.35352 | -2.27191 | 245 ft | 4 kts | 356° |
| 2026-05-04 13:47 | 53.35398 | -2.27225 | 246 ft | 11 kts | 324° |
| 2026-05-04 13:48 | 53.35466 | -2.27314 | 248 ft | 11 kts | 321° |
| 2026-05-04 13:48 | 53.35522 | -2.27390 | 248 ft | 10 kts | 321° |
| 2026-05-04 13:48 | 53.35578 | -2.27465 | 245 ft | 0 kts | 321° |
| 2026-05-04 13:48 | 53.35583 | -2.27471 | 245 ft | 3 kts | 321° |
| 2026-05-04 13:49 | 53.35617 | -2.27518 | 245 ft | 9 kts | 321° |
| 2026-05-04 13:49 | 53.35671 | -2.27592 | 246 ft | 10 kts | 320° |
| 2026-05-04 13:49 | 53.35720 | -2.27632 | 248 ft | 6 kts | 339° |
| 2026-05-04 13:49 | 53.35745 | -2.27648 | 249 ft | 1 kts | 338° |
| 2026-05-04 13:50 | 53.35747 | -2.27650 | 250 ft | 0 kts | 338° |
| 2026-05-04 13:50 | 53.35758 | -2.27657 | 250 ft | 3 kts | 337° |
| 2026-05-04 13:50 | 53.35789 | -2.27691 | 251 ft | 8 kts | 317° |
| 2026-05-04 13:50 | 53.35821 | -2.27748 | 252 ft | 6 kts | 313° |
| 2026-05-04 13:51 | 53.35866 | -2.27827 | 254 ft | 12 kts | 323° |
| 2026-05-04 13:51 | 53.35957 | -2.27862 | 255 ft | 11 kts | 339° |
| 2026-05-04 13:51 | 53.35982 | -2.27889 | 255 ft | 0 kts | 321° |
| 2026-05-04 13:51 | 53.35988 | -2.27897 | 255 ft | 3 kts | 320° |
| 2026-05-04 13:52 | 53.36048 | -2.27984 | 255 ft | 9 kts | 319° |
| 2026-05-04 13:52 | 53.36102 | -2.28062 | 255 ft | 12 kts | 317° |
| 2026-05-04 13:52 | 53.36143 | -2.28130 | 255 ft | 14 kts | 315° |
| 2026-05-04 13:53 | 53.36243 | -2.28299 | 255 ft | 17 kts | 314° |
| 2026-05-04 13:53 | 53.36333 | -2.28446 | 255 ft | 18 kts | 320° |
| 2026-05-04 13:53 | 53.36444 | -2.28529 | 255 ft | 18 kts | 318° |
| 2026-05-04 13:54 | 53.36621 | -2.28771 | 255 ft | 13 kts | 12° |
| 2026-05-04 13:54 | 53.36683 | -2.28808 | 255 ft | 6 kts | 315° |
| 2026-05-04 13:54 | 53.36707 | -2.28850 | 255 ft | 0 kts | 314° |